sensor_id;sensor_type;location;lat;lon;timestamp;temperature;humidity
21682;DHT22;11002;48.256;10.084;2023-02-26T00:00:17;1.30;62.10
21682;DHT22;11002;48.256;10.084;2023-02-26T00:02:46;1.30;61.50
21682;DHT22;11002;48.256;10.084;2023-02-26T00:05:15;1.20;62.00
21682;DHT22;11002;48.256;10.084;2023-02-26T00:07:42;1.20;61.30
21682;DHT22;11002;48.256;10.084;2023-02-26T00:10:13;1.10;60.30
21682;DHT22;11002;48.256;10.084;2023-02-26T00:12:42;1.20;61.60
21682;DHT22;11002;48.256;10.084;2023-02-26T00:15:11;1.10;61.60
21682;DHT22;11002;48.256;10.084;2023-02-26T00:17:47;1.00;60.90
21682;DHT22;11002;48.256;10.084;2023-02-26T00:20:17;0.90;61.20
21682;DHT22;11002;48.256;10.084;2023-02-26T00:22:45;1.10;61.40
21682;DHT22;11002;48.256;10.084;2023-02-26T00:25:14;1.20;61.30
21682;DHT22;11002;48.256;10.084;2023-02-26T00:27:42;1.30;61.50
21682;DHT22;11002;48.256;10.084;2023-02-26T00:30:11;1.10;60.50
21682;DHT22;11002;48.256;10.084;2023-02-26T00:32:39;1.10;60.20
21682;DHT22;11002;48.256;10.084;2023-02-26T00:35:10;1.10;60.20
21682;DHT22;11002;48.256;10.084;2023-02-26T00:37:52;1.00;59.60
21682;DHT22;11002;48.256;10.084;2023-02-26T00:43:14;1.20;60.00
21682;DHT22;11002;48.256;10.084;2023-02-26T00:45:46;1.00;59.40
21682;DHT22;11002;48.256;10.084;2023-02-26T00:48:30;1.00;58.10
21682;DHT22;11002;48.256;10.084;2023-02-26T00:51:07;1.10;58.10
21682;DHT22;11002;48.256;10.084;2023-02-26T00:53:42;0.80;58.10
21682;DHT22;11002;48.256;10.084;2023-02-26T00:56:12;0.90;58.80
21682;DHT22;11002;48.256;10.084;2023-02-26T00:58:40;1.00;58.00
21682;DHT22;11002;48.256;10.084;2023-02-26T01:01:07;0.80;57.80
21682;DHT22;11002;48.256;10.084;2023-02-26T01:03:35;1.00;59.00
21682;DHT22;11002;48.256;10.084;2023-02-26T01:06:04;0.70;58.00
21682;DHT22;11002;48.256;10.084;2023-02-26T01:08:43;1.00;58.70
21682;DHT22;11002;48.256;10.084;2023-02-26T01:11:16;0.80;58.60
21682;DHT22;11002;48.256;10.084;2023-02-26T01:13:44;0.90;59.00
21682;DHT22;11002;48.256;10.084;2023-02-26T01:16:16;0.80;58.70
21682;DHT22;11002;48.256;10.084;2023-02-26T01:18:49;0.80;58.30
21682;DHT22;11002;48.256;10.084;2023-02-26T01:21:22;0.60;59.10
21682;DHT22;11002;48.256;10.084;2023-02-26T01:23:53;0.70;57.60
21682;DHT22;11002;48.256;10.084;2023-02-26T01:26:25;0.70;56.90
21682;DHT22;11002;48.256;10.084;2023-02-26T01:28:53;0.60;57.80
21682;DHT22;11002;48.256;10.084;2023-02-26T01:31:32;0.80;57.90
21682;DHT22;11002;48.256;10.084;2023-02-26T01:34:04;0.70;57.50
21682;DHT22;11002;48.256;10.084;2023-02-26T01:36:37;0.60;57.60
21682;DHT22;11002;48.256;10.084;2023-02-26T01:39:11;0.60;57.10
21682;DHT22;11002;48.256;10.084;2023-02-26T01:41:46;0.60;56.40
21682;DHT22;11002;48.256;10.084;2023-02-26T01:44:22;0.60;55.80
21682;DHT22;11002;48.256;10.084;2023-02-26T01:47:10;0.50;56.00
21682;DHT22;11002;48.256;10.084;2023-02-26T01:49:42;0.30;55.90
21682;DHT22;11002;48.256;10.084;2023-02-26T01:55:17;0.50;56.90
21682;DHT22;11002;48.256;10.084;2023-02-26T01:57:48;0.40;56.50
21682;DHT22;11002;48.256;10.084;2023-02-26T02:00:17;0.40;56.10
21682;DHT22;11002;48.256;10.084;2023-02-26T02:02:45;0.40;55.50
21682;DHT22;11002;48.256;10.084;2023-02-26T02:05:16;0.40;55.70
21682;DHT22;11002;48.256;10.084;2023-02-26T02:07:45;0.40;55.60
21682;DHT22;11002;48.256;10.084;2023-02-26T02:10:13;0.20;54.80
21682;DHT22;11002;48.256;10.084;2023-02-26T02:12:44;0.10;55.70
21682;DHT22;11002;48.256;10.084;2023-02-26T02:15:19;0.10;55.80
21682;DHT22;11002;48.256;10.084;2023-02-26T02:17:56;0.00;56.00
21682;DHT22;11002;48.256;10.084;2023-02-26T02:20:49;0.40;56.00
21682;DHT22;11002;48.256;10.084;2023-02-26T02:23:21;0.10;55.20
21682;DHT22;11002;48.256;10.084;2023-02-26T02:32:05;0.40;55.70
21682;DHT22;11002;48.256;10.084;2023-02-26T02:34:38;0.50;56.10
21682;DHT22;11002;48.256;10.084;2023-02-26T02:37:13;0.20;55.80
21682;DHT22;11002;48.256;10.084;2023-02-26T02:39:46;0.40;56.70
21682;DHT22;11002;48.256;10.084;2023-02-26T02:42:21;0.30;56.00
21682;DHT22;11002;48.256;10.084;2023-02-26T02:44:52;0.20;55.90
21682;DHT22;11002;48.256;10.084;2023-02-26T02:47:22;0.30;55.90
21682;DHT22;11002;48.256;10.084;2023-02-26T02:49:55;0.40;55.60
21682;DHT22;11002;48.256;10.084;2023-02-26T02:52:27;0.00;55.30
21682;DHT22;11002;48.256;10.084;2023-02-26T02:55:01;0.00;55.70
21682;DHT22;11002;48.256;10.084;2023-02-26T02:57:34;0.00;55.80
21682;DHT22;11002;48.256;10.084;2023-02-26T03:00:05;0.00;56.40
21682;DHT22;11002;48.256;10.084;2023-02-26T03:02:43;0.00;56.90
21682;DHT22;11002;48.256;10.084;2023-02-26T03:05:12;0.20;57.40
21682;DHT22;11002;48.256;10.084;2023-02-26T03:07:45;0.10;57.60
21682;DHT22;11002;48.256;10.084;2023-02-26T03:10:14;0.10;57.40
21682;DHT22;11002;48.256;10.084;2023-02-26T03:12:42;0.20;57.80
21682;DHT22;11002;48.256;10.084;2023-02-26T03:15:11;0.30;57.10
21682;DHT22;11002;48.256;10.084;2023-02-26T03:17:46;0.30;57.20
21682;DHT22;11002;48.256;10.084;2023-02-26T03:20:24;0.30;57.10
21682;DHT22;11002;48.256;10.084;2023-02-26T03:23:02;0.10;57.10
21682;DHT22;11002;48.256;10.084;2023-02-26T03:25:37;0.20;57.60
21682;DHT22;11002;48.256;10.084;2023-02-26T03:28:14;0.10;58.20
21682;DHT22;11002;48.256;10.084;2023-02-26T03:30:48;0.00;58.30
21682;DHT22;11002;48.256;10.084;2023-02-26T03:33:22;-0.20;56.80
21682;DHT22;11002;48.256;10.084;2023-02-26T03:35:54;0.00;57.30
21682;DHT22;11002;48.256;10.084;2023-02-26T03:38:32;0.00;57.10
21682;DHT22;11002;48.256;10.084;2023-02-26T03:41:04;0.20;57.40
21682;DHT22;11002;48.256;10.084;2023-02-26T03:43:37;0.10;56.90
21682;DHT22;11002;48.256;10.084;2023-02-26T03:46:12;0.20;56.40
21682;DHT22;11002;48.256;10.084;2023-02-26T03:48:42;0.20;56.30
21682;DHT22;11002;48.256;10.084;2023-02-26T03:51:11;0.00;55.00
21682;DHT22;11002;48.256;10.084;2023-02-26T03:54:16;0.10;54.70
21682;DHT22;11002;48.256;10.084;2023-02-26T03:56:54;0.00;54.50
21682;DHT22;11002;48.256;10.084;2023-02-26T03:59:51;0.00;54.00
21682;DHT22;11002;48.256;10.084;2023-02-26T04:02:45;0.00;55.00
21682;DHT22;11002;48.256;10.084;2023-02-26T04:05:20;0.00;54.70
21682;DHT22;11002;48.256;10.084;2023-02-26T04:07:49;0.00;54.40
21682;DHT22;11002;48.256;10.084;2023-02-26T04:10:19;0.20;54.70
21682;DHT22;11002;48.256;10.084;2023-02-26T04:12:47;-0.10;53.30
21682;DHT22;11002;48.256;10.084;2023-02-26T04:15:14;-0.30;53.40
21682;DHT22;11002;48.256;10.084;2023-02-26T04:17:42;-0.20;53.40
21682;DHT22;11002;48.256;10.084;2023-02-26T04:20:10;-0.20;53.60
21682;DHT22;11002;48.256;10.084;2023-02-26T04:22:39;-0.20;53.50
21682;DHT22;11002;48.256;10.084;2023-02-26T04:25:07;-0.30;52.90
21682;DHT22;11002;48.256;10.084;2023-02-26T04:27:35;-0.40;53.10
21682;DHT22;11002;48.256;10.084;2023-02-26T04:30:03;-0.40;52.60
21682;DHT22;11002;48.256;10.084;2023-02-26T04:32:31;-0.40;52.70
21682;DHT22;11002;48.256;10.084;2023-02-26T04:34:59;-0.50;52.60
21682;DHT22;11002;48.256;10.084;2023-02-26T04:37:27;-0.30;52.60
21682;DHT22;11002;48.256;10.084;2023-02-26T04:39:56;-0.40;52.40
21682;DHT22;11002;48.256;10.084;2023-02-26T04:42:24;-0.60;52.80
21682;DHT22;11002;48.256;10.084;2023-02-26T04:44:51;-0.70;52.20
21682;DHT22;11002;48.256;10.084;2023-02-26T04:47:18;-0.80;52.30
21682;DHT22;11002;48.256;10.084;2023-02-26T04:49:46;-0.70;52.30
21682;DHT22;11002;48.256;10.084;2023-02-26T04:52:14;-0.70;52.70
21682;DHT22;11002;48.256;10.084;2023-02-26T04:54:42;-0.70;52.80
21682;DHT22;11002;48.256;10.084;2023-02-26T04:57:11;-0.70;52.60
21682;DHT22;11002;48.256;10.084;2023-02-26T04:59:39;-0.80;52.40
21682;DHT22;11002;48.256;10.084;2023-02-26T05:02:06;-0.80;52.40
21682;DHT22;11002;48.256;10.084;2023-02-26T05:04:38;-0.80;52.80
21682;DHT22;11002;48.256;10.084;2023-02-26T05:07:06;-0.80;52.70
21682;DHT22;11002;48.256;10.084;2023-02-26T05:09:34;-0.70;52.40
21682;DHT22;11002;48.256;10.084;2023-02-26T05:12:01;-0.80;52.90
21682;DHT22;11002;48.256;10.084;2023-02-26T05:14:30;-0.80;52.60
21682;DHT22;11002;48.256;10.084;2023-02-26T05:16:57;-0.70;52.40
21682;DHT22;11002;48.256;10.084;2023-02-26T05:19:25;-0.90;51.50
21682;DHT22;11002;48.256;10.084;2023-02-26T05:21:52;-1.00;52.30
21682;DHT22;11002;48.256;10.084;2023-02-26T05:24:20;-1.00;52.60
21682;DHT22;11002;48.256;10.084;2023-02-26T05:26:47;-1.00;52.80
21682;DHT22;11002;48.256;10.084;2023-02-26T05:29:15;-1.10;52.80
21682;DHT22;11002;48.256;10.084;2023-02-26T05:31:45;-0.90;52.90
21682;DHT22;11002;48.256;10.084;2023-02-26T05:34:12;-1.00;52.80
21682;DHT22;11002;48.256;10.084;2023-02-26T05:36:40;-1.10;52.80
21682;DHT22;11002;48.256;10.084;2023-02-26T05:39:08;-1.20;52.80
21682;DHT22;11002;48.256;10.084;2023-02-26T05:41:36;-1.00;52.60
21682;DHT22;11002;48.256;10.084;2023-02-26T05:44:03;-1.20;52.50
21682;DHT22;11002;48.256;10.084;2023-02-26T05:46:32;-1.10;52.80
21682;DHT22;11002;48.256;10.084;2023-02-26T05:49:01;-1.30;52.70
21682;DHT22;11002;48.256;10.084;2023-02-26T05:51:28;-1.10;52.70
21682;DHT22;11002;48.256;10.084;2023-02-26T05:53:56;-1.10;53.20
21682;DHT22;11002;48.256;10.084;2023-02-26T05:56:23;-1.20;52.90
21682;DHT22;11002;48.256;10.084;2023-02-26T05:58:50;-1.30;52.50
21682;DHT22;11002;48.256;10.084;2023-02-26T06:01:18;-1.30;52.80
21682;DHT22;11002;48.256;10.084;2023-02-26T06:03:45;-1.40;52.60
21682;DHT22;11002;48.256;10.084;2023-02-26T06:06:14;-1.10;53.00
21682;DHT22;11002;48.256;10.084;2023-02-26T06:08:43;-1.40;52.60
21682;DHT22;11002;48.256;10.084;2023-02-26T06:11:11;-1.40;52.90
21682;DHT22;11002;48.256;10.084;2023-02-26T06:13:38;-1.50;52.50
21682;DHT22;11002;48.256;10.084;2023-02-26T06:16:06;-1.10;52.80
21682;DHT22;11002;48.256;10.084;2023-02-26T06:18:33;-1.40;52.50
21682;DHT22;11002;48.256;10.084;2023-02-26T06:21:01;-1.10;52.40
21682;DHT22;11002;48.256;10.084;2023-02-26T06:23:30;-1.20;53.10
21682;DHT22;11002;48.256;10.084;2023-02-26T06:25:58;-1.30;52.40
21682;DHT22;11002;48.256;10.084;2023-02-26T06:28:25;-1.40;52.20
21682;DHT22;11002;48.256;10.084;2023-02-26T06:30:53;-1.20;52.30
21682;DHT22;11002;48.256;10.084;2023-02-26T06:33:20;-1.50;52.00
21682;DHT22;11002;48.256;10.084;2023-02-26T06:35:48;-1.20;52.50
21682;DHT22;11002;48.256;10.084;2023-02-26T06:38:15;-1.30;52.30
21682;DHT22;11002;48.256;10.084;2023-02-26T06:40:46;-1.40;52.30
21682;DHT22;11002;48.256;10.084;2023-02-26T06:43:13;-1.10;52.00
21682;DHT22;11002;48.256;10.084;2023-02-26T06:45:41;-1.30;51.90
21682;DHT22;11002;48.256;10.084;2023-02-26T06:48:08;-1.20;52.40
21682;DHT22;11002;48.256;10.084;2023-02-26T06:50:35;-1.10;51.80
21682;DHT22;11002;48.256;10.084;2023-02-26T06:53:03;-1.00;52.00
21682;DHT22;11002;48.256;10.084;2023-02-26T06:55:30;-1.00;51.70
21682;DHT22;11002;48.256;10.084;2023-02-26T06:57:59;-1.00;51.60
21682;DHT22;11002;48.256;10.084;2023-02-26T07:00:26;-1.10;51.50
21682;DHT22;11002;48.256;10.084;2023-02-26T07:02:53;-1.00;51.30
21682;DHT22;11002;48.256;10.084;2023-02-26T07:05:21;-1.20;51.40
21682;DHT22;11002;48.256;10.084;2023-02-26T07:07:48;-1.00;51.00
21682;DHT22;11002;48.256;10.084;2023-02-26T07:10:16;-1.10;50.60
21682;DHT22;11002;48.256;10.084;2023-02-26T07:12:43;-1.10;50.80
21682;DHT22;11002;48.256;10.084;2023-02-26T07:15:12;-1.30;50.70
21682;DHT22;11002;48.256;10.084;2023-02-26T07:17:39;-1.30;50.70
21682;DHT22;11002;48.256;10.084;2023-02-26T07:20:08;-1.30;51.20
21682;DHT22;11002;48.256;10.084;2023-02-26T07:22:37;-1.30;51.60
21682;DHT22;11002;48.256;10.084;2023-02-26T07:25:05;-1.10;51.50
21682;DHT22;11002;48.256;10.084;2023-02-26T07:27:33;-1.00;52.60
21682;DHT22;11002;48.256;10.084;2023-02-26T07:30:00;-1.00;52.00
21682;DHT22;11002;48.256;10.084;2023-02-26T07:32:29;-0.70;51.90
21682;DHT22;11002;48.256;10.084;2023-02-26T07:34:57;-0.70;51.50
21682;DHT22;11002;48.256;10.084;2023-02-26T07:37:24;-0.70;50.80
21682;DHT22;11002;48.256;10.084;2023-02-26T07:39:52;-1.00;50.70
21682;DHT22;11002;48.256;10.084;2023-02-26T07:42:19;-0.90;50.70
21682;DHT22;11002;48.256;10.084;2023-02-26T07:44:46;-1.00;51.20
21682;DHT22;11002;48.256;10.084;2023-02-26T07:47:14;-1.10;51.60
21682;DHT22;11002;48.256;10.084;2023-02-26T07:49:42;-0.50;50.80
21682;DHT22;11002;48.256;10.084;2023-02-26T07:52:10;0.20;51.10
21682;DHT22;11002;48.256;10.084;2023-02-26T07:54:37;0.50;46.60
21682;DHT22;11002;48.256;10.084;2023-02-26T07:57:05;0.60;45.20
21682;DHT22;11002;48.256;10.084;2023-02-26T07:59:32;1.20;45.90
21682;DHT22;11002;48.256;10.084;2023-02-26T08:01:59;1.50;43.70
21682;DHT22;11002;48.256;10.084;2023-02-26T08:04:27;1.60;42.80
21682;DHT22;11002;48.256;10.084;2023-02-26T08:06:56;1.80;44.10
21682;DHT22;11002;48.256;10.084;2023-02-26T08:09:23;1.60;41.60
21682;DHT22;11002;48.256;10.084;2023-02-26T08:11:50;1.80;42.90
21682;DHT22;11002;48.256;10.084;2023-02-26T08:14:18;1.70;41.30
21682;DHT22;11002;48.256;10.084;2023-02-26T08:16:45;2.00;43.50
21682;DHT22;11002;48.256;10.084;2023-02-26T08:19:12;2.10;40.60
21682;DHT22;11002;48.256;10.084;2023-02-26T08:21:40;2.30;40.50
21682;DHT22;11002;48.256;10.084;2023-02-26T08:24:09;2.20;38.20
21682;DHT22;11002;48.256;10.084;2023-02-26T08:26:37;1.60;40.70
21682;DHT22;11002;48.256;10.084;2023-02-26T08:29:05;1.40;42.50
21682;DHT22;11002;48.256;10.084;2023-02-26T08:31:32;0.90;42.80
21682;DHT22;11002;48.256;10.084;2023-02-26T08:34:00;0.80;42.00
21682;DHT22;11002;48.256;10.084;2023-02-26T08:36:28;0.50;43.40
21682;DHT22;11002;48.256;10.084;2023-02-26T08:38:55;0.30;43.90
21682;DHT22;11002;48.256;10.084;2023-02-26T08:41:24;0.20;46.10
21682;DHT22;11002;48.256;10.084;2023-02-26T08:43:55;0.10;46.70
21682;DHT22;11002;48.256;10.084;2023-02-26T08:46:22;0.00;46.40
21682;DHT22;11002;48.256;10.084;2023-02-26T08:48:55;0.10;46.90
21682;DHT22;11002;48.256;10.084;2023-02-26T08:51:36;0.10;47.50
21682;DHT22;11002;48.256;10.084;2023-02-26T08:54:03;0.30;45.60
21682;DHT22;11002;48.256;10.084;2023-02-26T08:56:32;0.30;47.80
21682;DHT22;11002;48.256;10.084;2023-02-26T08:58:59;0.40;45.10
21682;DHT22;11002;48.256;10.084;2023-02-26T09:01:26;0.50;46.40
21682;DHT22;11002;48.256;10.084;2023-02-26T09:03:54;0.80;44.60
21682;DHT22;11002;48.256;10.084;2023-02-26T09:06:21;1.10;43.30
21682;DHT22;11002;48.256;10.084;2023-02-26T09:08:49;1.80;42.10
21682;DHT22;11002;48.256;10.084;2023-02-26T09:11:17;2.00;41.80
21682;DHT22;11002;48.256;10.084;2023-02-26T09:13:46;1.90;40.10
21682;DHT22;11002;48.256;10.084;2023-02-26T09:16:13;1.80;39.60
21682;DHT22;11002;48.256;10.084;2023-02-26T09:18:41;1.60;41.50
21682;DHT22;11002;48.256;10.084;2023-02-26T09:21:09;1.40;40.00
21682;DHT22;11002;48.256;10.084;2023-02-26T09:23:36;1.00;42.20
21682;DHT22;11002;48.256;10.084;2023-02-26T09:26:04;0.70;43.10
21682;DHT22;11002;48.256;10.084;2023-02-26T09:28:33;0.70;43.20
21682;DHT22;11002;48.256;10.084;2023-02-26T09:31:02;0.60;44.70
21682;DHT22;11002;48.256;10.084;2023-02-26T09:33:32;0.50;45.60
21682;DHT22;11002;48.256;10.084;2023-02-26T09:35:59;0.30;45.80
21682;DHT22;11002;48.256;10.084;2023-02-26T09:38:27;0.30;44.70
21682;DHT22;11002;48.256;10.084;2023-02-26T09:40:57;-0.20;46.40
21682;DHT22;11002;48.256;10.084;2023-02-26T09:43:58;-0.30;47.60
21682;DHT22;11002;48.256;10.084;2023-02-26T09:46:37;0.00;47.50
21682;DHT22;11002;48.256;10.084;2023-02-26T09:49:14;-0.10;47.90
21682;DHT22;11002;48.256;10.084;2023-02-26T09:51:45;-0.10;46.50
21682;DHT22;11002;48.256;10.084;2023-02-26T09:54:17;0.10;46.70
21682;DHT22;11002;48.256;10.084;2023-02-26T09:56:46;0.30;46.30
21682;DHT22;11002;48.256;10.084;2023-02-26T09:59:14;0.20;46.60
21682;DHT22;11002;48.256;10.084;2023-02-26T10:01:47;0.20;48.20
21682;DHT22;11002;48.256;10.084;2023-02-26T10:04:24;0.30;46.70
21682;DHT22;11002;48.256;10.084;2023-02-26T10:07:02;0.60;46.60
21682;DHT22;11002;48.256;10.084;2023-02-26T10:09:46;0.40;46.40
21682;DHT22;11002;48.256;10.084;2023-02-26T10:12:18;0.70;47.20
21682;DHT22;11002;48.256;10.084;2023-02-26T10:14:51;0.90;48.50
21682;DHT22;11002;48.256;10.084;2023-02-26T10:17:27;1.00;46.00
21682;DHT22;11002;48.256;10.084;2023-02-26T10:20:00;0.80;47.60
21682;DHT22;11002;48.256;10.084;2023-02-26T10:22:34;1.10;49.80
21682;DHT22;11002;48.256;10.084;2023-02-26T10:25:08;1.00;52.50
21682;DHT22;11002;48.256;10.084;2023-02-26T10:27:46;1.00;50.20
21682;DHT22;11002;48.256;10.084;2023-02-26T10:30:21;0.80;53.30
21682;DHT22;11002;48.256;10.084;2023-02-26T10:33:00;0.80;53.50
21682;DHT22;11002;48.256;10.084;2023-02-26T10:35:33;0.60;53.70
21682;DHT22;11002;48.256;10.084;2023-02-26T10:38:05;0.60;54.10
21682;DHT22;11002;48.256;10.084;2023-02-26T10:40:36;0.50;54.70
21682;DHT22;11002;48.256;10.084;2023-02-26T10:43:12;0.20;55.30
21682;DHT22;11002;48.256;10.084;2023-02-26T10:45:50;0.60;57.40
21682;DHT22;11002;48.256;10.084;2023-02-26T10:48:30;0.60;58.40
21682;DHT22;11002;48.256;10.084;2023-02-26T10:51:12;0.50;58.70
21682;DHT22;11002;48.256;10.084;2023-02-26T10:53:42;0.50;59.10
21682;DHT22;11002;48.256;10.084;2023-02-26T10:56:14;0.30;58.90
21682;DHT22;11002;48.256;10.084;2023-02-26T10:58:43;0.40;58.90
21682;DHT22;11002;48.256;10.084;2023-02-26T11:01:15;0.30;58.90
21682;DHT22;11002;48.256;10.084;2023-02-26T11:03:49;0.30;58.90
21682;DHT22;11002;48.256;10.084;2023-02-26T11:06:26;0.40;56.20
21682;DHT22;11002;48.256;10.084;2023-02-26T11:08:56;0.00;55.60
21682;DHT22;11002;48.256;10.084;2023-02-26T11:11:39;0.10;57.10
21682;DHT22;11002;48.256;10.084;2023-02-26T11:14:07;0.00;58.10
21682;DHT22;11002;48.256;10.084;2023-02-26T11:16:41;0.10;56.50
21682;DHT22;11002;48.256;10.084;2023-02-26T11:19:10;0.40;56.70
21682;DHT22;11002;48.256;10.084;2023-02-26T11:21:40;0.30;55.60
21682;DHT22;11002;48.256;10.084;2023-02-26T11:24:11;0.20;54.50
21682;DHT22;11002;48.256;10.084;2023-02-26T11:26:45;0.30;54.70
21682;DHT22;11002;48.256;10.084;2023-02-26T11:29:15;0.40;54.80
21682;DHT22;11002;48.256;10.084;2023-02-26T11:31:47;0.20;53.80
21682;DHT22;11002;48.256;10.084;2023-02-26T11:34:21;0.30;54.20
21682;DHT22;11002;48.256;10.084;2023-02-26T11:36:50;0.40;55.30
21682;DHT22;11002;48.256;10.084;2023-02-26T11:39:21;0.60;53.40
21682;DHT22;11002;48.256;10.084;2023-02-26T11:41:49;0.80;52.30
21682;DHT22;11002;48.256;10.084;2023-02-26T11:44:23;0.90;54.70
21682;DHT22;11002;48.256;10.084;2023-02-26T11:46:56;1.10;54.20
21682;DHT22;11002;48.256;10.084;2023-02-26T11:49:27;1.10;53.50
21682;DHT22;11002;48.256;10.084;2023-02-26T11:52:13;1.10;54.20
21682;DHT22;11002;48.256;10.084;2023-02-26T11:54:43;1.10;52.80
21682;DHT22;11002;48.256;10.084;2023-02-26T11:57:16;1.10;54.10
21682;DHT22;11002;48.256;10.084;2023-02-26T11:59:47;1.00;53.90
21682;DHT22;11002;48.256;10.084;2023-02-26T12:02:18;1.10;56.50
21682;DHT22;11002;48.256;10.084;2023-02-26T12:04:51;0.80;56.30
21682;DHT22;11002;48.256;10.084;2023-02-26T12:07:19;1.00;56.70
21682;DHT22;11002;48.256;10.084;2023-02-26T12:09:48;0.80;57.40
21682;DHT22;11002;48.256;10.084;2023-02-26T12:15:16;0.80;56.80
21682;DHT22;11002;48.256;10.084;2023-02-26T12:18:09;0.70;59.40
21682;DHT22;11002;48.256;10.084;2023-02-26T12:20:49;1.00;59.80
21682;DHT22;11002;48.256;10.084;2023-02-26T12:23:41;0.90;57.10
21682;DHT22;11002;48.256;10.084;2023-02-26T12:26:24;0.80;54.50
21682;DHT22;11002;48.256;10.084;2023-02-26T12:29:09;0.60;55.00
21682;DHT22;11002;48.256;10.084;2023-02-26T12:31:55;1.00;54.10
21682;DHT22;11002;48.256;10.084;2023-02-26T12:34:41;0.90;55.80
21682;DHT22;11002;48.256;10.084;2023-02-26T12:37:25;1.20;56.10
21682;DHT22;11002;48.256;10.084;2023-02-26T12:40:04;1.20;51.80
21682;DHT22;11002;48.256;10.084;2023-02-26T12:42:44;1.30;50.50
21682;DHT22;11002;48.256;10.084;2023-02-26T12:45:38;1.30;52.30
21682;DHT22;11002;48.256;10.084;2023-02-26T12:48:32;1.50;51.00
21682;DHT22;11002;48.256;10.084;2023-02-26T12:51:08;1.40;46.90
21682;DHT22;11002;48.256;10.084;2023-02-26T12:53:52;1.40;48.00
21682;DHT22;11002;48.256;10.084;2023-02-26T12:59:34;1.00;51.20
21682;DHT22;11002;48.256;10.084;2023-02-26T13:05:31;1.00;51.20
21682;DHT22;11002;48.256;10.084;2023-02-26T13:08:11;1.20;48.90
21682;DHT22;11002;48.256;10.084;2023-02-26T13:10:50;1.10;47.40
21682;DHT22;11002;48.256;10.084;2023-02-26T13:13:34;1.50;48.60
21682;DHT22;11002;48.256;10.084;2023-02-26T13:16:13;1.70;46.20
21682;DHT22;11002;48.256;10.084;2023-02-26T13:18:49;1.90;44.30
21682;DHT22;11002;48.256;10.084;2023-02-26T13:21:21;2.20;44.70
21682;DHT22;11002;48.256;10.084;2023-02-26T13:23:52;2.60;41.90
21682;DHT22;11002;48.256;10.084;2023-02-26T13:26:22;2.90;41.20
21682;DHT22;11002;48.256;10.084;2023-02-26T13:28:55;3.10;42.50
21682;DHT22;11002;48.256;10.084;2023-02-26T13:31:27;2.50;52.20
21682;DHT22;11002;48.256;10.084;2023-02-26T13:34:00;1.90;59.50
21682;DHT22;11002;48.256;10.084;2023-02-26T13:36:28;0.90;63.70
21682;DHT22;11002;48.256;10.084;2023-02-26T13:39:26;0.40;66.60
21682;DHT22;11002;48.256;10.084;2023-02-26T13:42:03;0.20;76.40
21682;DHT22;11002;48.256;10.084;2023-02-26T13:44:37;0.20;76.70
21682;DHT22;11002;48.256;10.084;2023-02-26T13:47:32;0.50;76.10
21682;DHT22;11002;48.256;10.084;2023-02-26T13:50:16;0.30;73.30
21682;DHT22;11002;48.256;10.084;2023-02-26T13:52:50;0.40;74.20
21682;DHT22;11002;48.256;10.084;2023-02-26T13:55:34;0.60;66.70
21682;DHT22;11002;48.256;10.084;2023-02-26T13:58:17;0.30;66.50
21682;DHT22;11002;48.256;10.084;2023-02-26T14:00:58;0.40;62.90
21682;DHT22;11002;48.256;10.084;2023-02-26T14:03:32;0.60;65.60
21682;DHT22;11002;48.256;10.084;2023-02-26T14:06:22;1.00;58.60
21682;DHT22;11002;48.256;10.084;2023-02-26T14:08:53;1.10;63.30
21682;DHT22;11002;48.256;10.084;2023-02-26T14:14:21;1.30;61.90
21682;DHT22;11002;48.256;10.084;2023-02-26T14:16:53;1.10;65.50
21682;DHT22;11002;48.256;10.084;2023-02-26T14:19:27;0.70;68.40
21682;DHT22;11002;48.256;10.084;2023-02-26T14:22:12;-0.10;68.80
21682;DHT22;11002;48.256;10.084;2023-02-26T14:25:29;-0.40;78.50
21682;DHT22;11002;48.256;10.084;2023-02-26T14:31:23;-0.10;90.30
21682;DHT22;11002;48.256;10.084;2023-02-26T14:34:06;0.10;90.50
21682;DHT22;11002;48.256;10.084;2023-02-26T14:36:39;0.50;82.30
21682;DHT22;11002;48.256;10.084;2023-02-26T14:39:17;0.60;77.90
21682;DHT22;11002;48.256;10.084;2023-02-26T14:41:49;0.50;73.20
21682;DHT22;11002;48.256;10.084;2023-02-26T14:44:21;0.50;73.00
21682;DHT22;11002;48.256;10.084;2023-02-26T14:46:52;0.50;71.30
21682;DHT22;11002;48.256;10.084;2023-02-26T14:49:25;0.70;74.50
21682;DHT22;11002;48.256;10.084;2023-02-26T14:52:08;1.00;70.90
21682;DHT22;11002;48.256;10.084;2023-02-26T14:54:55;1.10;65.80
21682;DHT22;11002;48.256;10.084;2023-02-26T14:57:46;1.10;62.10
21682;DHT22;11002;48.256;10.084;2023-02-26T15:00:29;1.20;60.50
21682;DHT22;11002;48.256;10.084;2023-02-26T15:03:26;1.30;61.00
21682;DHT22;11002;48.256;10.084;2023-02-26T15:06:12;1.20;62.00
21682;DHT22;11002;48.256;10.084;2023-02-26T15:08:45;1.30;58.80
21682;DHT22;11002;48.256;10.084;2023-02-26T15:11:45;1.20;59.50
21682;DHT22;11002;48.256;10.084;2023-02-26T15:14:33;1.00;57.00
21682;DHT22;11002;48.256;10.084;2023-02-26T15:17:12;1.10;59.10
21682;DHT22;11002;48.256;10.084;2023-02-26T15:19:55;1.00;55.60
21682;DHT22;11002;48.256;10.084;2023-02-26T15:22:40;1.00;55.40
21682;DHT22;11002;48.256;10.084;2023-02-26T15:25:18;1.10;57.60
21682;DHT22;11002;48.256;10.084;2023-02-26T15:27:49;0.90;53.90
21682;DHT22;11002;48.256;10.084;2023-02-26T15:30:17;1.10;54.20
21682;DHT22;11002;48.256;10.084;2023-02-26T15:32:45;1.10;53.10
21682;DHT22;11002;48.256;10.084;2023-02-26T15:35:17;1.10;55.60
21682;DHT22;11002;48.256;10.084;2023-02-26T15:37:48;1.00;56.40
21682;DHT22;11002;48.256;10.084;2023-02-26T15:40:16;1.30;57.40
21682;DHT22;11002;48.256;10.084;2023-02-26T15:42:48;1.30;55.90
21682;DHT22;11002;48.256;10.084;2023-02-26T15:45:22;1.00;58.10
21682;DHT22;11002;48.256;10.084;2023-02-26T15:47:56;1.00;64.50
21682;DHT22;11002;48.256;10.084;2023-02-26T15:50:44;0.10;62.10
21682;DHT22;11002;48.256;10.084;2023-02-26T15:53:17;0.00;68.60
21682;DHT22;11002;48.256;10.084;2023-02-26T15:55:49;-0.10;69.00
21682;DHT22;11002;48.256;10.084;2023-02-26T15:58:21;-0.10;75.80
21682;DHT22;11002;48.256;10.084;2023-02-26T16:00:54;0.00;75.50
21682;DHT22;11002;48.256;10.084;2023-02-26T16:03:25;-0.30;73.50
21682;DHT22;11002;48.256;10.084;2023-02-26T16:05:57;-0.40;73.80
21682;DHT22;11002;48.256;10.084;2023-02-26T16:08:28;-0.10;73.00
21682;DHT22;11002;48.256;10.084;2023-02-26T16:11:00;-0.20;72.70
21682;DHT22;11002;48.256;10.084;2023-02-26T16:13:30;0.00;72.50
21682;DHT22;11002;48.256;10.084;2023-02-26T16:16:00;-0.20;67.30
21682;DHT22;11002;48.256;10.084;2023-02-26T16:18:30;-0.10;68.40
21682;DHT22;11002;48.256;10.084;2023-02-26T16:21:01;-0.10;66.70
21682;DHT22;11002;48.256;10.084;2023-02-26T16:23:40;-0.20;62.70
21682;DHT22;11002;48.256;10.084;2023-02-26T16:26:15;0.00;63.60
21682;DHT22;11002;48.256;10.084;2023-02-26T16:28:44;-0.10;62.00